Time;durP1;ratioP1;P1;durP2;ratioP2;P2;SDS_P1;SDS_P2;PMS_P1;PMS_P2;Temp;Humidity;BMP_temperature;BMP_pressure;BME280_temperature;BME280_humidity;BME280_pressure;Samples;Min_cycle;Max_cycle;Signal;HPM_P1;HPM_P2
2020/12/17 00:02:17;;;;;;;26.02;15.93;;;5.80;85.50;;;;;;5012946;28;20021;-77
2020/12/17 00:04:42;;;;;;;30.13;16.67;;;5.80;85.60;;;;;;5011557;28;20120;-75
2020/12/17 00:07:09;;;;;;;24.85;15.48;;;5.80;85.00;;;;;;5013006;28;20061;-75
2020/12/17 00:09:34;;;;;;;24.77;16.13;;;5.70;84.20;;;;;;5011542;28;20022;-76
2020/12/17 00:12:00;;;;;;;25.20;15.45;;;5.60;84.00;;;;;;5011555;28;20072;-74
2020/12/17 00:14:25;;;;;;;29.38;16.10;;;5.50;84.70;;;;;;5012606;28;20037;-75
2020/12/17 00:16:51;;;;;;;31.35;17.20;;;5.40;86.20;;;;;;5011488;28;20061;-75
2020/12/17 00:19:17;;;;;;;28.42;17.48;;;5.40;86.90;;;;;;5013302;28;20037;-76
2020/12/17 00:21:43;;;;;;;31.45;18.95;;;5.40;87.00;;;;;;5014899;28;20026;-75
2020/12/17 00:24:09;;;;;;;31.17;18.50;;;5.40;87.10;;;;;;5015012;28;20030;-75
2020/12/17 00:26:34;;;;;;;31.30;18.67;;;5.40;87.10;;;;;;5014682;28;20038;-76
2020/12/17 00:29:00;;;;;;;28.98;17.92;;;5.40;87.20;;;;;;5014717;28;20037;-76
2020/12/17 00:31:25;;;;;;;27.00;16.73;;;5.40;87.20;;;;;;5014702;28;20022;-76
2020/12/17 00:33:51;;;;;;;30.33;18.45;;;5.40;87.00;;;;;;5014725;28;20121;-76
2020/12/17 00:36:18;;;;;;;28.58;18.42;;;5.40;87.40;;;;;;5015893;28;20026;-74
2020/12/17 00:38:45;;;;;;;25.00;16.35;;;5.40;87.60;;;;;;5015639;28;20112;-74
2020/12/17 00:41:15;;;;;;;30.73;18.50;;;5.40;87.40;;;;;;4998096;28;20026;-74
2020/12/17 00:43:42;;;;;;;29.98;17.83;;;5.30;87.70;;;;;;5014374;28;20109;-75
2020/12/17 00:46:08;;;;;;;27.52;18.23;;;5.20;88.00;;;;;;5014478;28;20022;-75
2020/12/17 00:48:34;;;;;;;29.20;17.85;;;5.20;88.40;;;;;;5014447;28;20334;-75
2020/12/17 00:51:00;;;;;;;31.23;19.27;;;5.20;88.40;;;;;;5014367;28;20025;-76
2020/12/17 00:53:26;;;;;;;29.75;19.05;;;5.20;88.60;;;;;;5014449;28;20030;-74
2020/12/17 01:01:09;;;;;;;28.38;17.58;;;5.30;88.40;;;;;;4278457;23;20341;-79
2020/12/17 01:03:35;;;;;;;27.25;18.00;;;5.30;88.30;;;;;;5035445;28;20155;-75
2020/12/17 01:06:01;;;;;;;28.77;17.50;;;5.30;88.00;;;;;;5034920;28;20065;-74
2020/12/17 01:08:27;;;;;;;25.20;16.50;;;5.40;87.50;;;;;;5035076;28;20040;-73
2020/12/17 01:10:53;;;;;;;23.58;14.40;;;5.40;87.40;;;;;;5035157;28;20025;-73
2020/12/17 01:13:20;;;;;;;20.55;14.15;;;5.40;88.10;;;;;;5034999;28;20499;-73
2020/12/17 01:15:46;;;;;;;28.27;15.85;;;5.40;86.80;;;;;;5034783;28;20026;-73
2020/12/17 01:18:11;;;;;;;27.65;17.20;;;5.40;86.30;;;;;;5034832;28;20107;-73
2020/12/17 01:20:37;;;;;;;25.25;16.52;;;5.40;86.30;;;;;;5034918;28;20484;-79
2020/12/17 01:23:03;;;;;;;24.17;15.55;;;5.40;87.40;;;;;;5035135;28;20097;-73
2020/12/17 01:25:28;;;;;;;25.73;16.92;;;5.40;87.40;;;;;;5034803;28;20033;-76
2020/12/17 01:27:53;;;;;;;24.40;15.50;;;5.40;87.40;;;;;;5034945;28;20088;-76
2020/12/17 01:30:19;;;;;;;20.33;11.95;;;5.40;87.00;;;;;;5034735;28;20080;-82
2020/12/17 01:32:45;;;;;;;19.67;12.38;;;5.30;86.40;;;;;;5034829;28;20419;-83
2020/12/17 01:35:10;;;;;;;21.20;15.18;;;5.20;86.30;;;;;;5033717;28;20036;-82
2020/12/17 01:37:36;;;;;;;16.98;9.82;;;5.20;87.40;;;;;;5034417;28;20067;-74
2020/12/17 01:40:02;;;;;;;10.93;7.80;;;5.10;86.80;;;;;;5034479;28;20030;-82
2020/12/17 01:42:28;;;;;;;10.70;7.35;;;5.00;86.50;;;;;;5034295;28;20025;-82
2020/12/17 01:44:53;;;;;;;14.85;9.63;;;5.00;86.30;;;;;;5034430;28;20025;-76
2020/12/17 01:47:19;;;;;;;15.73;8.20;;;5.00;86.20;;;;;;5034531;28;20366;-81
2020/12/17 01:49:46;;;;;;;14.35;9.02;;;5.00;86.30;;;;;;5034202;28;20065;-80
2020/12/17 01:52:12;;;;;;;15.43;9.27;;;5.00;86.50;;;;;;5034158;28;20021;-82
2020/12/17 01:54:37;;;;;;;16.92;10.77;;;5.10;86.60;;;;;;5034348;28;20036;-82
2020/12/17 01:57:05;;;;;;;15.70;8.80;;;5.10;86.30;;;;;;5034330;28;20017;-81
2020/12/17 01:59:59;;;;;;;12.07;7.75;;;5.10;86.00;;;;;;5034105;28;20528;-74
2020/12/17 02:02:28;;;;;;;17.45;11.82;;;5.10;85.30;;;;;;5031314;28;20041;-76
2020/12/17 02:04:55;;;;;;;14.18;9.27;;;5.10;85.00;;;;;;5034183;28;20388;-81
2020/12/17 02:07:21;;;;;;;11.70;7.93;;;5.10;84.80;;;;;;5016406;28;20433;-75
2020/12/17 02:09:49;;;;;;;15.20;9.88;;;5.10;84.30;;;;;;5034042;28;20036;-74
2020/12/17 02:12:14;;;;;;;17.58;11.23;;;5.10;84.20;;;;;;5033914;28;20022;-78
2020/12/17 02:14:40;;;;;;;19.15;12.30;;;5.10;84.30;;;;;;5033904;28;20357;-75
2020/12/17 02:17:06;;;;;;;23.30;14.32;;;5.10;84.30;;;;;;5033853;28;20429;-78
2020/12/17 02:19:31;;;;;;;22.63;14.63;;;5.00;84.70;;;;;;5032955;28;20034;-75
2020/12/17 02:21:58;;;;;;;25.65;14.80;;;5.00;85.60;;;;;;5033794;28;20026;-80
2020/12/17 02:24:24;;;;;;;20.23;14.00;;;5.00;85.90;;;;;;5033651;28;20033;-78
2020/12/17 02:26:50;;;;;;;24.50;14.48;;;4.90;86.00;;;;;;5033689;28;20053;-77
2020/12/17 02:29:16;;;;;;;21.90;14.77;;;4.90;86.40;;;;;;5015939;28;20460;-73
2020/12/17 02:31:41;;;;;;;23.17;14.65;;;5.00;86.40;;;;;;5033471;28;20059;-75
2020/12/17 02:34:07;;;;;;;23.85;14.13;;;4.90;86.30;;;;;;5033483;28;20025;-74
2020/12/17 02:36:33;;;;;;;23.77;14.85;;;4.90;86.20;;;;;;5033501;28;20036;-74
2020/12/17 02:38:59;;;;;;;16.73;9.93;;;4.90;86.20;;;;;;5033534;28;20136;-74
2020/12/17 02:41:26;;;;;;;21.88;13.65;;;4.90;85.50;;;;;;5033228;28;20037;-74
2020/12/17 02:43:52;;;;;;;22.13;13.30;;;4.80;86.60;;;;;;5033797;28;20096;-76
2020/12/17 02:46:18;;;;;;;22.10;13.88;;;4.80;86.60;;;;;;5033524;28;20481;-75
2020/12/17 02:48:48;;;;;;;24.00;13.57;;;4.80;86.30;;;;;;5033640;28;20587;-73
2020/12/17 02:51:14;;;;;;;21.27;13.18;;;4.80;86.20;;;;;;5033480;28;20033;-73
2020/12/17 02:53:39;;;;;;;21.67;13.30;;;4.80;86.00;;;;;;5033246;28;20029;-74
2020/12/17 02:56:05;;;;;;;18.65;12.52;;;4.80;86.00;;;;;;5033230;28;20032;-73
2020/12/17 02:58:30;;;;;;;21.15;13.93;;;4.80;85.70;;;;;;5033093;28;20045;-77
2020/12/17 03:00:56;;;;;;;20.15;12.57;;;4.70;86.00;;;;;;5032962;28;20029;-73
2020/12/17 03:03:21;;;;;;;22.08;12.98;;;4.70;86.20;;;;;;5033247;28;20480;-75
2020/12/17 03:05:47;;;;;;;20.50;12.90;;;4.60;85.80;;;;;;5015370;28;20101;-74
2020/12/17 03:08:12;;;;;;;19.60;13.00;;;4.60;85.60;;;;;;5033010;28;20028;-73
2020/12/17 03:10:38;;;;;;;20.40;12.38;;;4.60;85.70;;;;;;5033081;28;20034;-78
2020/12/17 03:13:03;;;;;;;22.00;12.73;;;4.60;85.80;;;;;;5033177;28;20029;-75
2020/12/17 03:15:29;;;;;;;16.65;11.18;;;4.50;85.50;;;;;;5032935;28;20025;-74
2020/12/17 03:17:54;;;;;;;16.70;11.05;;;4.40;85.20;;;;;;5032976;28;20090;-74
2020/12/17 03:20:20;;;;;;;17.98;12.45;;;4.30;85.30;;;;;;5033153;28;20045;-79
2020/12/17 03:22:45;;;;;;;18.50;12.45;;;4.20;85.30;;;;;;5033088;28;20040;-74
2020/12/17 03:25:11;;;;;;;18.58;11.77;;;4.10;85.20;;;;;;5033127;28;20029;-75
2020/12/17 03:27:36;;;;;;;17.15;11.80;;;4.00;85.50;;;;;;5032980;28;20376;-74
2020/12/17 03:30:06;;;;;;;15.73;11.50;;;4.00;85.60;;;;;;5032947;28;20512;-75
2020/12/17 03:32:32;;;;;;;16.45;9.95;;;4.00;85.60;;;;;;5032815;28;20815;-73
2020/12/17 03:34:58;;;;;;;18.65;10.80;;;4.00;86.00;;;;;;5032769;28;20044;-73
2020/12/17 03:37:23;;;;;;;15.70;8.80;;;3.90;86.30;;;;;;5032652;28;20025;-75
2020/12/17 03:39:49;;;;;;;13.82;8.95;;;3.80;86.10;;;;;;5032847;28;20061;-75
2020/12/17 03:42:17;;;;;;;18.98;10.43;;;3.70;86.30;;;;;;5032693;28;20099;-80
2020/12/17 03:44:43;;;;;;;12.35;8.77;;;3.80;86.80;;;;;;5032865;28;20083;-76
2020/12/17 03:47:08;;;;;;;13.57;7.72;;;3.70;86.50;;;;;;5032634;28;20033;-73
2020/12/17 03:49:34;;;;;;;13.65;9.40;;;3.70;86.70;;;;;;5032756;28;20424;-76
2020/12/17 03:51:59;;;;;;;14.80;10.00;;;3.70;86.90;;;;;;5032618;28;20025;-78
2020/12/17 03:54:25;;;;;;;17.98;10.45;;;3.80;86.70;;;;;;5034980;28;20043;-73
2020/12/17 03:56:50;;;;;;;12.40;8.68;;;3.70;86.50;;;;;;5036471;28;20034;-74
2020/12/17 03:59:16;;;;;;;18.70;10.70;;;3.70;86.80;;;;;;5036387;28;20064;-81
2020/12/17 04:01:41;;;;;;;14.57;9.82;;;3.80;86.70;;;;;;5036198;28;20057;-75
2020/12/17 04:04:07;;;;;;;16.17;10.88;;;3.80;86.40;;;;;;5036169;28;20025;-74
2020/12/17 04:06:32;;;;;;;14.23;9.68;;;3.80;86.30;;;;;;5036216;28;20025;-73
2020/12/17 04:08:58;;;;;;;15.63;10.20;;;3.80;86.30;;;;;;5036142;28;20052;-80
2020/12/17 04:11:23;;;;;;;13.13;9.02;;;3.70;86.00;;;;;;5036224;28;20425;-73
2020/12/17 04:13:49;;;;;;;14.00;9.10;;;3.80;86.00;;;;;;5036171;28;20431;-81
2020/12/17 04:16:14;;;;;;;12.48;8.90;;;3.80;86.70;;;;;;5036095;28;20029;-73
2020/12/17 04:18:40;;;;;;;16.10;9.63;;;3.80;85.90;;;;;;5035954;28;20043;-72
2020/12/17 04:21:05;;;;;;;13.10;9.40;;;3.70;85.90;;;;;;5036120;28;20072;-73
2020/12/17 04:23:31;;;;;;;12.82;8.32;;;3.70;86.00;;;;;;5035967;28;20029;-74
2020/12/17 04:25:59;;;;;;;11.88;7.95;;;3.70;85.90;;;;;;5035949;28;20025;-79
2020/12/17 04:28:24;;;;;;;12.20;8.23;;;3.70;85.80;;;;;;5035877;28;20473;-75
2020/12/17 04:30:50;;;;;;;10.13;7.72;;;3.70;85.30;;;;;;5036114;28;20075;-73
2020/12/17 04:33:15;;;;;;;12.38;8.10;;;3.70;85.30;;;;;;5035817;28;20068;-73
2020/12/17 04:35:41;;;;;;;9.60;7.25;;;3.70;85.20;;;;;;5035287;28;20021;-75
2020/12/17 04:38:06;;;;;;;11.35;7.68;;;3.70;85.20;;;;;;5035161;28;20385;-81
2020/12/17 04:40:32;;;;;;;10.80;7.18;;;3.70;85.40;;;;;;5035907;28;20043;-74
2020/12/17 04:42:57;;;;;;;10.15;7.03;;;3.70;85.10;;;;;;5035654;28;20486;-74
2020/12/17 04:45:24;;;;;;;10.20;7.28;;;3.80;84.90;;;;;;5035340;28;20100;-73
2020/12/17 04:47:52;;;;;;;9.52;6.72;;;3.80;84.60;;;;;;5035270;28;20029;-72
2020/12/17 04:50:21;;;;;;;9.55;6.97;;;3.70;84.50;;;;;;5035424;28;20025;-75
2020/12/17 04:52:51;;;;;;;10.45;6.75;;;3.70;84.60;;;;;;5035251;28;20033;-73
2020/12/17 04:55:17;;;;;;;12.15;7.40;;;3.70;84.60;;;;;;5035250;28;20031;-74
2020/12/17 04:57:46;;;;;;;11.48;7.57;;;3.70;84.70;;;;;;5035226;28;20130;-73
2020/12/17 05:00:13;;;;;;;11.80;7.55;;;3.60;85.10;;;;;;5035469;28;20104;-73
2020/12/17 05:02:43;;;;;;;11.90;7.40;;;3.50;85.30;;;;;;5035403;28;20091;-73
2020/12/17 05:05:09;;;;;;;11.07;6.60;;;3.40;85.30;;;;;;5034719;28;20029;-73
2020/12/17 05:07:36;;;;;;;9.40;7.00;;;3.30;85.50;;;;;;5035758;28;20464;-74
2020/12/17 05:10:04;;;;;;;10.70;6.97;;;3.30;85.80;;;;;;5036344;28;20516;-73
2020/12/17 05:12:29;;;;;;;11.70;6.95;;;3.20;85.80;;;;;;5035987;28;20530;-73
2020/12/17 05:14:55;;;;;;;10.48;6.68;;;3.30;86.10;;;;;;5035168;28;20029;-73
2020/12/17 05:17:21;;;;;;;11.32;7.70;;;3.30;86.00;;;;;;5034936;28;20105;-73
2020/12/17 05:19:47;;;;;;;11.77;6.88;;;3.40;85.90;;;;;;5035063;28;20128;-73
2020/12/17 05:22:14;;;;;;;9.40;6.43;;;3.50;85.90;;;;;;5035200;28;20025;-73
2020/12/17 05:24:43;;;;;;;11.90;7.72;;;3.50;85.70;;;;;;5034800;28;20068;-77
2020/12/17 05:27:09;;;;;;;9.73;6.55;;;3.60;85.60;;;;;;5034561;28;20032;-72
2020/12/17 05:29:37;;;;;;;10.60;7.40;;;3.70;85.50;;;;;;5034861;28;20040;-74
2020/12/17 05:32:03;;;;;;;9.55;7.00;;;3.70;85.00;;;;;;5034104;28;20021;-76
2020/12/17 05:34:29;;;;;;;9.98;7.10;;;3.70;84.50;;;;;;5034380;28;20389;-74
2020/12/17 05:36:54;;;;;;;12.05;6.78;;;3.70;84.40;;;;;;5033133;28;20108;-75
2020/12/17 05:39:22;;;;;;;10.23;6.88;;;3.80;84.20;;;;;;5035269;28;20112;-76
2020/12/17 05:41:49;;;;;;;13.50;7.22;;;3.70;84.00;;;;;;5035584;28;20033;-73
2020/12/17 05:44:26;;;;;;;9.05;6.45;;;3.70;84.20;;;;;;5035118;28;20119;-73
2020/12/17 05:46:52;;;;;;;11.65;6.90;;;3.70;84.40;;;;;;5017228;28;20080;-75
2020/12/17 05:49:29;;;;;;;9.75;6.28;;;3.80;84.40;;;;;;5034968;28;20031;-73
2020/12/17 05:52:14;;;;;;;10.73;5.78;;;3.90;84.70;;;;;;5034860;28;20117;-73
2020/12/17 05:54:50;;;;;;;9.80;6.80;;;3.90;84.50;;;;;;5034270;28;20049;-77
2020/12/17 05:57:15;;;;;;;11.35;6.53;;;4.00;84.30;;;;;;5034106;28;20268;-73
2020/12/17 05:59:42;;;;;;;9.90;6.20;;;4.10;83.90;;;;;;5034256;28;20083;-72
2020/12/17 06:02:28;;;;;;;7.28;5.22;;;4.20;83.50;;;;;;5034119;28;20045;-74
2020/12/17 06:05:05;;;;;;;10.68;6.10;;;4.20;83.10;;;;;;5034230;28;20018;-75
2020/12/17 06:07:47;;;;;;;11.60;5.53;;;4.20;82.90;;;;;;5033889;28;20026;-73
2020/12/17 06:10:23;;;;;;;10.52;5.05;;;4.20;82.60;;;;;;5033956;28;20029;-73
2020/12/17 06:12:50;;;;;;;9.13;5.18;;;4.30;82.50;;;;;;5033958;28;20476;-78
2020/12/17 06:15:18;;;;;;;13.40;5.32;;;4.30;82.50;;;;;;5033836;28;20575;-79
2020/12/17 06:17:49;;;;;;;9.32;4.85;;;4.30;82.50;;;;;;5033036;28;20017;-72
2020/12/17 06:20:15;;;;;;;7.30;4.63;;;4.40;82.40;;;;;;5033781;28;20208;-73
2020/12/17 06:22:42;;;;;;;8.27;4.82;;;4.50;82.30;;;;;;5033985;28;20017;-72
2020/12/17 06:25:11;;;;;;;8.20;4.38;;;4.50;82.00;;;;;;5033875;28;20025;-72
2020/12/17 06:27:44;;;;;;;7.07;4.90;;;4.50;81.60;;;;;;5033836;28;20469;-78
2020/12/17 06:30:10;;;;;;;6.03;3.80;;;4.60;81.30;;;;;;5015714;28;20110;-72
2020/12/17 06:32:36;;;;;;;7.18;4.53;;;4.70;81.20;;;;;;5033515;28;20417;-72
2020/12/17 06:35:05;;;;;;;7.28;4.93;;;4.70;80.90;;;;;;5033602;28;20057;-76
2020/12/17 06:37:34;;;;;;;7.20;4.78;;;4.70;80.60;;;;;;5033362;28;20025;-72
2020/12/17 06:40:00;;;;;;;8.43;5.20;;;4.70;80.40;;;;;;5033446;28;20025;-73
2020/12/17 06:42:39;;;;;;;6.40;4.35;;;4.80;80.30;;;;;;5033769;28;20524;-85
2020/12/17 06:45:23;;;;;;;7.60;4.90;;;4.80;80.20;;;;;;5033381;28;20033;-73
2020/12/17 06:47:48;;;;;;;5.32;3.78;;;4.80;79.90;;;;;;5033219;28;20036;-75
2020/12/17 06:50:28;;;;;;;6.63;3.80;;;4.80;79.90;;;;;;5033508;28;20112;-82
2020/12/17 06:53:10;;;;;;;6.22;3.55;;;4.90;79.80;;;;;;5033351;28;20049;-74
2020/12/17 06:55:47;;;;;;;7.55;4.07;;;4.90;80.40;;;;;;5033331;28;20416;-74
2020/12/17 06:58:25;;;;;;;6.85;3.40;;;4.90;79.60;;;;;;5033084;28;20037;-77
2020/12/17 07:00:53;;;;;;;6.05;3.42;;;4.90;80.00;;;;;;5032949;28;20026;-74
2020/12/17 07:03:44;;;;;;;4.65;3.45;;;5.00;79.90;;;;;;5033006;28;20022;-75
2020/12/17 07:06:18;;;;;;;7.68;4.05;;;5.10;79.50;;;;;;5015608;28;20365;-76
2020/12/17 07:08:57;;;;;;;6.83;3.63;;;5.20;79.00;;;;;;5033988;28;20113;-81
2020/12/17 07:11:52;;;;;;;5.95;3.70;;;5.20;79.00;;;;;;5015816;28;20072;-73
2020/12/17 07:14:26;;;;;;;6.13;3.85;;;5.10;78.70;;;;;;5016626;28;20033;-74
2020/12/17 07:16:58;;;;;;;5.10;3.58;;;5.20;78.80;;;;;;5033557;28;20021;-74
2020/12/17 07:19:44;;;;;;;6.47;3.55;;;5.20;78.40;;;;;;5033179;28;20049;-73
2020/12/17 07:22:14;;;;;;;6.22;4.10;;;5.10;78.50;;;;;;5033021;28;20100;-76
2020/12/17 07:24:43;;;;;;;7.38;4.03;;;5.00;78.30;;;;;;5033294;28;20484;-75
2020/12/17 07:27:22;;;;;;;5.68;3.47;;;4.90;79.00;;;;;;5015825;28;20026;-74
2020/12/17 07:29:58;;;;;;;7.00;4.30;;;4.90;80.00;;;;;;5037393;28;20079;-74
2020/12/17 07:32:25;;;;;;;6.63;3.90;;;5.00;78.90;;;;;;5036558;28;20041;-75
2020/12/17 07:34:51;;;;;;;6.32;3.65;;;4.90;79.10;;;;;;5036709;28;20029;-74
2020/12/17 07:37:59;;;;;;;6.18;3.53;;;4.80;79.30;;;;;;5036859;28;20030;-74
2020/12/17 07:40:33;;;;;;;6.35;3.97;;;4.80;79.70;;;;;;4956126;29;20070;-75
2020/12/17 07:43:07;;;;;;;5.60;3.67;;;4.80;79.70;;;;;;5028055;28;20030;-75
2020/12/17 07:45:52;;;;;;;5.80;3.55;;;4.80;79.50;;;;;;5036451;28;20022;-74
2020/12/17 07:48:36;;;;;;;4.88;3.22;;;4.90;79.60;;;;;;5036134;28;20021;-74
2020/12/17 07:51:29;;;;;;;4.18;3.28;;;4.90;79.70;;;;;;5036244;28;20025;-74
2020/12/17 07:53:55;;;;;;;6.32;3.58;;;5.00;79.20;;;;;;5032981;28;20120;-74
2020/12/17 07:56:21;;;;;;;4.57;2.95;;;5.10;79.10;;;;;;5035883;28;20018;-75
2020/12/17 07:58:49;;;;;;;7.13;3.50;;;5.10;79.00;;;;;;5035764;28;20091;-74
2020/12/17 08:01:15;;;;;;;5.88;3.25;;;5.20;78.80;;;;;;5035697;28;20518;-73
2020/12/17 08:03:44;;;;;;;4.10;3.22;;;5.30;78.80;;;;;;5035523;28;20499;-73
2020/12/17 08:06:10;;;;;;;4.78;3.45;;;5.30;78.60;;;;;;5035540;28;20025;-73
2020/12/17 08:08:37;;;;;;;4.72;3.30;;;5.30;78.30;;;;;;5036045;28;20021;-73
2020/12/17 08:11:04;;;;;;;5.43;3.20;;;5.40;78.10;;;;;;5035809;28;20455;-73
2020/12/17 08:13:30;;;;;;;5.05;3.33;;;5.40;78.00;;;;;;5035883;28;20022;-73
2020/12/17 08:15:57;;;;;;;4.05;3.33;;;5.50;78.00;;;;;;5035641;28;20025;-73
2020/12/17 08:18:31;;;;;;;5.88;3.65;;;5.70;77.70;;;;;;5035767;28;20037;-73
2020/12/17 08:21:01;;;;;;;4.10;3.03;;;5.80;77.00;;;;;;5035791;28;20024;-73
2020/12/17 08:23:28;;;;;;;5.15;3.60;;;5.80;76.90;;;;;;5035995;28;20022;-72
2020/12/17 08:25:55;;;;;;;3.08;2.30;;;5.90;76.60;;;;;;5035844;28;20013;-73
2020/12/17 08:28:21;;;;;;;3.30;2.35;;;5.90;76.30;;;;;;5035811;28;20065;-73
2020/12/17 08:30:46;;;;;;;6.55;3.15;;;6.00;76.30;;;;;;5035715;28;20025;-72
2020/12/17 08:33:12;;;;;;;6.60;2.72;;;6.10;76.10;;;;;;5036283;28;20021;-73
2020/12/17 08:35:38;;;;;;;5.07;3.40;;;6.10;76.10;;;;;;5035724;28;20044;-75
2020/12/17 08:38:08;;;;;;;4.35;2.70;;;6.10;76.10;;;;;;5035398;28;20043;-73
2020/12/17 08:40:34;;;;;;;4.07;2.80;;;6.20;76.20;;;;;;5034872;28;20056;-73
2020/12/17 08:43:09;;;;;;;2.95;2.30;;;6.30;76.10;;;;;;5035451;28;20032;-74
2020/12/17 08:45:39;;;;;;;4.53;2.63;;;6.30;75.80;;;;;;5035531;28;20033;-72
2020/12/17 08:48:10;;;;;;;4.78;2.40;;;6.30;76.10;;;;;;5035609;28;20070;-74
2020/12/17 08:50:38;;;;;;;4.22;2.70;;;6.40;75.90;;;;;;5035421;28;20013;-75
2020/12/17 08:53:19;;;;;;;4.70;2.53;;;6.50;75.80;;;;;;5035599;28;20057;-74
2020/12/17 08:56:07;;;;;;;3.88;2.58;;;6.70;76.00;;;;;;5035282;28;20025;-72
2020/12/17 08:58:51;;;;;;;4.38;2.20;;;6.80;75.10;;;;;;5035060;28;20057;-74
2020/12/17 09:01:19;;;;;;;3.22;2.45;;;6.80;74.70;;;;;;5034934;28;20102;-73
2020/12/17 09:03:48;;;;;;;4.75;3.13;;;6.80;74.90;;;;;;5034886;28;20036;-73
2020/12/17 09:06:13;;;;;;;6.22;3.90;;;6.80;74.90;;;;;;5034985;28;20045;-73
2020/12/17 09:08:39;;;;;;;17.90;3.45;;;6.80;75.10;;;;;;5035079;28;20026;-75
2020/12/17 09:11:05;;;;;;;7.97;2.83;;;7.10;79.80;;;;;;5034979;28;20040;-73
2020/12/17 09:13:30;;;;;;;2.80;2.30;;;7.50;79.10;;;;;;5034996;28;20057;-74
2020/12/17 09:15:58;;;;;;;4.25;2.40;;;8.00;77.80;;;;;;5035031;28;20032;-73
2020/12/17 09:18:24;;;;;;;9.38;2.55;;;8.30;77.00;;;;;;5034687;28;20045;-73
2020/12/17 09:21:08;;;;;;;4.13;2.03;;;8.60;75.10;;;;;;5034813;28;20022;-74
2020/12/17 09:23:34;;;;;;;5.50;2.35;;;9.00;73.00;;;;;;5034679;28;20548;-73
2020/12/17 09:26:18;;;;;;;4.00;2.05;;;9.30;72.30;;;;;;5034525;28;20057;-73
2020/12/17 09:28:51;;;;;;;3.80;2.10;;;9.80;70.40;;;;;;5034423;28;20051;-75
2020/12/17 09:31:27;;;;;;;4.38;2.40;;;10.00;68.50;;;;;;5016360;28;20030;-74
2020/12/17 09:34:11;;;;;;;4.47;2.38;;;10.20;66.80;;;;;;5016342;28;20029;-74
2020/12/17 09:36:37;;;;;;;6.80;2.22;;;10.30;66.30;;;;;;5034327;28;20445;-74
2020/12/17 09:39:09;;;;;;;6.22;2.10;;;10.50;66.50;;;;;;5034211;28;20025;-74
2020/12/17 09:41:35;;;;;;;1.95;1.75;;;10.70;65.50;;;;;;5032759;28;20118;-74
2020/12/17 09:44:02;;;;;;;22.50;3.45;;;10.60;64.50;;;;;;5034245;28;20022;-72
2020/12/17 09:46:41;;;;;;;39.00;6.93;;;10.40;64.50;;;;;;5034191;28;20549;-73
2020/12/17 09:49:07;;;;;;;163.23;19.77;;;10.20;65.10;;;;;;5034145;28;20025;-73
2020/12/17 09:51:33;;;;;;;58.50;7.90;;;10.00;66.90;;;;;;5032938;28;20488;-74
2020/12/17 09:54:02;;;;;;;11.18;3.38;;;9.90;67.00;;;;;;5033983;28;20045;-71
2020/12/17 09:56:28;;;;;;;6.03;2.35;;;9.80;67.80;;;;;;5034042;28;20022;-71
2020/12/17 09:58:54;;;;;;;5.13;1.80;;;9.80;68.40;;;;;;5033982;28;20037;-70
2020/12/17 10:01:19;;;;;;;4.30;1.70;;;9.80;68.70;;;;;;5038809;28;20041;-70
2020/12/17 10:03:45;;;;;;;9.95;2.55;;;9.80;68.90;;;;;;5053760;28;20029;-72
2020/12/17 10:06:11;;;;;;;17.10;4.28;;;9.80;69.10;;;;;;5053677;28;20025;-72
2020/12/17 10:08:37;;;;;;;31.20;5.10;;;10.00;68.90;;;;;;5053543;28;20029;-72
2020/12/17 10:11:04;;;;;;;6.90;3.90;;;10.10;68.00;;;;;;5053426;28;20031;-70
2020/12/17 10:13:30;;;;;;;6.15;3.67;;;10.00;67.20;;;;;;5053354;28;20032;-72
2020/12/17 10:15:56;;;;;;;7.82;3.28;;;9.80;66.90;;;;;;5053387;28;20070;-71
2020/12/17 10:18:21;;;;;;;5.70;2.58;;;9.80;66.70;;;;;;5053413;28;20036;-70
2020/12/17 10:20:47;;;;;;;6.00;2.80;;;9.70;66.90;;;;;;5053491;28;20028;-71
2020/12/17 10:23:12;;;;;;;3.67;2.50;;;9.60;67.10;;;;;;5053145;28;20040;-71
2020/12/17 10:25:38;;;;;;;2.90;2.13;;;9.60;67.50;;;;;;5053508;28;20017;-71
2020/12/17 10:28:03;;;;;;;2.85;2.00;;;9.90;67.00;;;;;;5053463;28;20377;-75
2020/12/17 10:30:29;;;;;;;4.13;2.85;;;10.00;66.60;;;;;;5053529;28;20021;-73
2020/12/17 10:32:57;;;;;;;5.65;2.78;;;10.00;66.60;;;;;;5053418;28;20032;-72
2020/12/17 10:35:24;;;;;;;5.55;2.58;;;10.00;66.70;;;;;;5053351;28;20033;-73
2020/12/17 10:37:49;;;;;;;3.65;2.40;;;10.10;66.90;;;;;;5053149;28;20052;-71
2020/12/17 10:40:15;;;;;;;9.43;2.63;;;10.00;66.70;;;;;;5052939;28;20068;-73
2020/12/17 10:42:41;;;;;;;5.10;2.17;;;10.10;66.80;;;;;;5053000;28;20101;-70
2020/12/17 10:45:08;;;;;;;4.60;2.40;;;10.70;65.80;;;;;;5053018;28;20052;-73
2020/12/17 10:47:34;;;;;;;4.82;2.20;;;11.60;63.20;;;;;;5052723;28;20021;-73
2020/12/17 10:49:59;;;;;;;3.45;2.08;;;12.30;60.20;;;;;;5053042;28;20374;-74
2020/12/17 10:52:25;;;;;;;3.10;1.98;;;12.90;57.80;;;;;;5052901;28;20055;-77
2020/12/17 10:54:50;;;;;;;2.42;1.75;;;13.60;55.20;;;;;;5053170;28;20092;-72
2020/12/17 10:57:19;;;;;;;3.67;1.88;;;14.20;52.80;;;;;;5052700;28;20032;-72
2020/12/17 10:59:45;;;;;;;2.40;1.70;;;14.80;50.70;;;;;;5052865;28;20039;-72
2020/12/17 11:02:11;;;;;;;2.05;1.50;;;15.20;48.60;;;;;;5052258;28;20045;-71
2020/12/17 11:04:36;;;;;;;5.82;2.00;;;15.40;47.50;;;;;;5052692;28;20091;-74
2020/12/17 11:07:02;;;;;;;3.40;1.80;;;15.90;47.40;;;;;;5052380;28;20098;-73
2020/12/17 11:09:28;;;;;;;3.67;1.98;;;16.80;45.10;;;;;;5052567;28;20563;-74
2020/12/17 11:11:53;;;;;;;3.80;1.63;;;17.20;43.60;;;;;;5052542;28;20086;-74
2020/12/17 11:14:20;;;;;;;2.85;2.20;;;16.60;43.00;;;;;;5052376;28;20445;-73
2020/12/17 11:16:48;;;;;;;5.28;1.65;;;15.30;44.70;;;;;;5052485;28;20057;-73
2020/12/17 11:19:14;;;;;;;2.67;2.08;;;14.30;47.50;;;;;;5052450;28;20058;-73
2020/12/17 11:21:39;;;;;;;7.32;2.70;;;13.50;50.70;;;;;;5052236;28;20100;-73
2020/12/17 11:24:05;;;;;;;6.38;2.55;;;12.80;53.50;;;;;;5052368;28;20074;-73
2020/12/17 11:26:31;;;;;;;4.18;2.47;;;12.40;56.00;;;;;;5052671;28;20499;-73
2020/12/17 11:28:58;;;;;;;6.32;2.40;;;12.10;57.80;;;;;;5052680;28;20032;-73
2020/12/17 11:31:28;;;;;;;5.40;2.55;;;11.90;58.80;;;;;;5052824;28;20025;-74
2020/12/17 11:33:55;;;;;;;3.97;2.30;;;11.80;59.80;;;;;;5053332;28;20036;-76
2020/12/17 11:36:20;;;;;;;6.90;3.63;;;11.60;60.90;;;;;;5052306;28;20021;-73
2020/12/17 11:38:47;;;;;;;3.13;2.00;;;11.60;61.60;;;;;;5052748;28;20036;-76
2020/12/17 11:41:13;;;;;;;3.25;1.60;;;11.70;61.80;;;;;;5052627;28;20029;-73
2020/12/17 11:43:39;;;;;;;3.40;2.38;;;11.80;61.70;;;;;;5052507;28;20074;-73
2020/12/17 11:46:04;;;;;;;2.85;1.52;;;11.80;61.60;;;;;;5052437;28;20025;-73
2020/12/17 11:48:30;;;;;;;4.63;1.70;;;12.00;61.30;;;;;;5052330;28;20023;-74
2020/12/17 11:50:56;;;;;;;5.18;1.70;;;12.00;60.70;;;;;;5052525;28;20021;-72
2020/12/17 11:53:21;;;;;;;3.33;1.70;;;11.80;60.90;;;;;;5052725;28;20029;-74
2020/12/17 11:55:47;;;;;;;27.15;16.40;;;11.80;61.50;;;;;;5052354;28;20037;-74
2020/12/17 11:58:12;;;;;;;2.97;1.35;;;11.70;62.10;;;;;;5052218;28;20056;-73
2020/12/17 12:00:38;;;;;;;4.88;1.50;;;11.60;62.50;;;;;;5051910;28;20104;-74
2020/12/17 12:03:03;;;;;;;5.07;1.92;;;11.60;62.90;;;;;;5052172;28;20053;-74
2020/12/17 12:05:30;;;;;;;2.88;1.40;;;11.50;63.30;;;;;;5052050;28;20029;-73
2020/12/17 12:07:56;;;;;;;4.35;1.73;;;11.50;63.70;;;;;;5053340;28;20013;-72
2020/12/17 12:10:22;;;;;;;3.17;1.77;;;11.50;64.00;;;;;;5054958;28;20029;-72
2020/12/17 12:12:47;;;;;;;4.78;1.90;;;11.60;63.80;;;;;;5054594;28;20468;-74
2020/12/17 12:15:13;;;;;;;6.10;2.25;;;11.50;64.00;;;;;;5055956;28;20025;-72
2020/12/17 12:17:38;;;;;;;6.07;1.73;;;11.60;63.90;;;;;;5055912;28;20475;-73
2020/12/17 12:20:04;;;;;;;4.88;1.50;;;12.00;63.60;;;;;;5055924;28;20048;-73
2020/12/17 12:22:29;;;;;;;3.65;1.55;;;14.10;59.40;;;;;;5055758;28;20028;-74
2020/12/17 12:24:55;;;;;;;4.03;1.58;;;14.90;54.50;;;;;;5055677;28;20040;-73
2020/12/17 12:27:20;;;;;;;2.88;1.48;;;14.50;53.20;;;;;;5055474;28;20029;-73
2020/12/17 12:29:46;;;;;;;6.95;1.70;;;14.20;53.70;;;;;;5055669;28;20477;-73
2020/12/17 12:32:15;;;;;;;5.93;1.98;;;13.90;54.70;;;;;;5055478;28;20028;-74
2020/12/17 12:34:40;;;;;;;2.65;1.50;;;13.70;55.60;;;;;;5055252;28;20017;-74
2020/12/17 12:37:06;;;;;;;3.85;1.67;;;13.30;56.00;;;;;;5055458;28;20103;-73
2020/12/17 12:39:31;;;;;;;43.22;4.60;;;13.40;56.70;;;;;;5055226;28;20041;-81
2020/12/17 12:41:57;;;;;;;21.35;2.38;;;13.70;56.60;;;;;;5055414;28;20024;-74
2020/12/17 12:44:23;;;;;;;3.55;1.70;;;13.70;55.40;;;;;;5055067;28;20036;-74
2020/12/17 12:46:48;;;;;;;9.52;1.77;;;13.00;57.30;;;;;;5054994;28;20465;-73
2020/12/17 12:49:15;;;;;;;4.55;1.40;;;13.20;58.10;;;;;;5055046;28;20428;-73
2020/12/17 12:51:40;;;;;;;2.95;1.30;;;13.50;57.60;;;;;;5054980;28;20472;-73
2020/12/17 12:54:06;;;;;;;34.17;4.45;;;13.50;57.10;;;;;;5055149;28;20035;-73
2020/12/17 12:56:31;;;;;;;3.28;1.30;;;13.20;57.30;;;;;;5055250;28;20086;-82
2020/12/17 12:58:57;;;;;;;6.95;2.22;;;13.70;57.50;;;;;;5055019;28;20385;-77